createdAt,value
2018-07-10T04:10:58.213Z,55
2018-07-10T04:11:23.748Z,55
2018-07-10T04:11:49.317Z,50
2018-07-10T04:12:14.735Z,45
2018-07-10T04:12:40.224Z,40
2018-07-10T04:13:05.685Z,40
2018-07-10T04:13:31.194Z,35
2018-07-10T04:13:56.672Z,35
2018-07-10T04:14:22.181Z,35
2018-07-10T04:14:47.672Z,35
2018-07-10T04:15:13.147Z,35
2018-07-10T04:15:38.635Z,35
2018-07-10T04:16:04.115Z,35
2018-07-10T04:16:29.603Z,40
2018-07-10T04:16:55.076Z,40
2018-07-10T04:17:20.583Z,40
2018-07-10T04:17:46.123Z,40
2018-07-10T04:18:11.574Z,40
2018-07-10T04:18:37.057Z,40
2018-07-10T04:19:45.745Z,35
2018-07-10T04:20:11.249Z,35
2018-07-10T04:20:36.760Z,40
2018-07-10T04:21:02.246Z,40
2018-07-10T04:21:27.759Z,40
2018-07-10T04:21:53.254Z,40
2018-07-10T04:22:18.792Z,40
2018-07-10T04:22:44.271Z,40
2018-07-10T04:24:08.266Z,40
2018-07-10T04:24:33.764Z,40
2018-07-10T04:24:59.245Z,40
2018-07-10T04:26:18.151Z,40
2018-07-10T04:26:43.656Z,40
2018-07-10T04:27:09.148Z,40
2018-07-10T04:27:34.662Z,40
2018-07-10T04:28:00.156Z,40
2018-07-10T04:29:24.143Z,35
2018-07-10T04:29:49.663Z,35
2018-07-10T04:30:15.114Z,35
2018-07-10T04:30:40.611Z,40
2018-07-10T04:31:06.145Z,40
2018-07-10T04:31:31.633Z,40
2018-07-10T04:31:57.144Z,40
2018-07-10T04:32:22.658Z,40
2018-07-10T04:32:48.146Z,40
2018-07-10T04:33:13.688Z,45
2018-07-10T04:33:39.180Z,45
2018-07-10T04:34:04.658Z,45
2018-07-10T04:34:30.151Z,45
2018-07-10T04:34:55.639Z,50
2018-07-10T04:36:14.584Z,55
2018-07-10T04:36:40.077Z,55
2018-07-10T04:37:05.573Z,55
2018-07-10T04:37:31.062Z,55
2018-07-10T04:37:56.692Z,60
2018-07-10T04:38:22.118Z,60
2018-07-10T04:38:47.622Z,55
2018-07-10T04:39:13.114Z,55
2018-07-10T04:39:38.600Z,55
2018-07-10T04:40:04.132Z,50
2018-07-10T04:40:29.671Z,50
2018-07-10T04:40:55.149Z,50
2018-07-10T04:41:20.637Z,45
2018-07-10T04:41:46.123Z,45
2018-07-10T04:42:11.592Z,40
2018-07-10T04:42:37.065Z,40
2018-07-10T04:43:02.552Z,35
2018-07-10T04:43:28.053Z,35
2018-07-10T04:43:53.551Z,30
2018-07-10T04:44:19.060Z,30
2018-07-10T04:44:44.562Z,30
2018-07-10T04:45:10.045Z,30
2018-07-10T04:45:35.564Z,30
2018-07-10T04:46:01.073Z,35
2018-07-10T04:46:26.553Z,35
2018-07-10T04:46:52.127Z,35
2018-07-10T04:47:17.641Z,35
2018-07-10T04:47:43.284Z,35
2018-07-10T04:48:09.034Z,30
2018-07-10T04:48:34.529Z,30
2018-07-10T04:49:00.037Z,30
2018-07-10T04:49:25.652Z,30
2018-07-10T04:49:51.238Z,25
2018-07-10T04:50:16.639Z,25
2018-07-10T04:50:42.170Z,25
2018-07-10T04:51:07.678Z,20
2018-07-10T04:52:31.712Z,20
2018-07-10T04:52:57.352Z,20
2018-07-10T04:53:22.872Z,20
2018-07-10T04:53:48.315Z,20
2018-07-10T04:54:13.833Z,20
2018-07-10T04:54:39.606Z,20
2018-07-10T04:55:05.097Z,25
2018-07-10T04:55:30.639Z,25
2018-07-10T04:55:56.110Z,25
2018-07-10T04:56:21.606Z,25
2018-07-10T04:56:47.128Z,25
2018-07-10T04:57:12.620Z,25
2018-07-10T04:57:38.087Z,25
2018-07-10T04:58:03.614Z,25
2018-07-10T04:58:29.127Z,30
2018-07-10T04:58:54.622Z,30
2018-07-10T04:59:20.104Z,30
2018-07-10T04:59:45.695Z,30
2018-07-10T05:00:11.212Z,35
2018-07-10T05:00:36.718Z,40
2018-07-10T05:01:02.204Z,45
2018-07-10T05:02:31.321Z,60
2018-07-10T05:02:56.829Z,65
2018-07-10T05:03:22.328Z,65
2018-07-10T05:03:47.802Z,65
2018-07-10T05:04:13.296Z,65
2018-07-10T05:04:38.805Z,65
2018-07-10T05:05:04.320Z,60
2018-07-10T05:05:29.809Z,60
2018-07-10T05:05:55.381Z,60
2018-07-10T05:06:20.820Z,55
2018-07-10T05:06:46.344Z,55
2018-07-10T05:07:11.793Z,50
2018-07-10T05:07:37.322Z,50
2018-07-10T05:09:01.371Z,45
2018-07-10T05:09:26.890Z,45
2018-07-10T05:09:52.372Z,45
2018-07-10T05:10:17.865Z,50
2018-07-10T05:10:43.336Z,50
2018-07-10T05:11:08.839Z,50
2018-07-10T05:11:34.351Z,50
2018-07-10T05:11:59.863Z,55
2018-07-10T05:12:25.286Z,55
2018-07-10T05:12:50.784Z,55
2018-07-10T05:13:16.279Z,50
2018-07-10T05:13:41.783Z,50
2018-07-10T05:14:07.300Z,50
2018-07-10T05:14:32.783Z,50
2018-07-10T05:14:58.262Z,55
2018-07-10T05:15:23.777Z,55
2018-07-10T05:15:49.283Z,60
2018-07-10T05:16:14.774Z,55
2018-07-10T05:16:40.255Z,55
2018-07-10T05:17:05.850Z,55
2018-07-10T05:17:31.360Z,60
2018-07-10T05:17:56.845Z,60
2018-07-10T05:18:22.372Z,60
2018-07-10T05:18:47.981Z,60
2018-07-10T05:19:13.475Z,60
2018-07-10T05:19:39.321Z,65
2018-07-10T05:20:04.925Z,65
2018-07-10T05:20:30.434Z,70
2018-07-10T05:20:55.986Z,70
2018-07-10T05:21:21.492Z,75
2018-07-10T05:21:46.969Z,75
2018-07-10T05:22:12.462Z,75
2018-07-10T05:22:37.926Z,80
2018-07-10T05:23:03.408Z,75
2018-07-10T05:23:28.859Z,70
2018-07-10T05:23:54.386Z,70
2018-07-10T05:24:19.890Z,70
2018-07-10T05:24:45.382Z,70
2018-07-10T05:25:10.849Z,70
2018-07-10T05:25:36.340Z,70
2018-07-10T05:26:01.855Z,70
2018-07-10T05:26:27.345Z,70
2018-07-10T05:26:52.810Z,70
2018-07-10T05:27:18.335Z,70
2018-07-10T05:27:43.823Z,70
2018-07-10T05:28:09.289Z,65
2018-07-10T05:28:34.789Z,55
2018-07-10T05:29:00.437Z,55
2018-07-10T05:29:25.765Z,55
2018-07-10T05:29:51.273Z,55
2018-07-10T05:30:16.783Z,55
2018-07-10T05:30:42.273Z,55
2018-07-10T05:31:07.761Z,55
2018-07-10T05:31:33.270Z,50
2018-07-10T05:31:58.771Z,50
2018-07-10T05:32:24.248Z,50
2018-07-10T05:32:49.745Z,50
2018-07-10T05:33:15.261Z,50
2018-07-10T05:33:40.806Z,55
2018-07-10T05:34:06.310Z,50
2018-07-10T05:34:31.799Z,50
2018-07-10T05:34:57.318Z,50
2018-07-10T05:35:22.798Z,50
2018-07-10T05:35:48.269Z,55
2018-07-10T05:36:13.777Z,55
2018-07-10T05:36:39.260Z,55
2018-07-10T05:37:04.793Z,55
2018-07-10T05:37:30.217Z,60
2018-07-10T05:37:55.700Z,60
2018-07-10T05:38:21.203Z,65
2018-07-10T05:38:46.886Z,70
2018-07-10T05:39:12.400Z,65
2018-07-10T05:39:37.883Z,60
2018-07-10T05:40:03.595Z,60
2018-07-10T05:40:29.109Z,60
2018-07-10T05:40:54.652Z,60
2018-07-10T05:41:20.133Z,60
2018-07-10T05:41:45.599Z,60
2018-07-10T05:42:11.188Z,60
2018-07-10T05:42:36.701Z,55
2018-07-10T05:43:02.172Z,55
2018-07-10T05:43:27.849Z,55
2018-07-10T05:43:53.337Z,60
2018-07-10T05:44:18.854Z,60
2018-07-10T05:44:44.354Z,60
2018-07-10T05:45:09.875Z,60
2018-07-10T05:45:35.363Z,65
2018-07-10T05:46:00.862Z,60
2018-07-10T05:46:26.507Z,55
2018-07-10T05:46:51.946Z,55
2018-07-10T05:47:17.444Z,55
2018-07-10T05:47:43.058Z,55
2018-07-10T05:48:08.542Z,60
2018-07-10T05:48:34.092Z,55
2018-07-10T05:48:59.689Z,55
2018-07-10T05:49:25.206Z,55
2018-07-10T05:49:50.756Z,50
2018-07-10T05:50:16.185Z,45
2018-07-10T05:50:41.659Z,45
2018-07-10T05:51:07.148Z,40
2018-07-10T05:51:32.650Z,40
2018-07-10T05:51:58.205Z,40
2018-07-10T05:52:23.658Z,35
2018-07-10T05:53:52.784Z,35
2018-07-10T05:54:18.304Z,35
2018-07-10T05:54:43.799Z,35
2018-07-10T05:56:12.891Z,35
2018-07-10T05:56:38.399Z,35
2018-07-10T05:57:03.891Z,35
2018-07-10T05:57:29.398Z,35
2018-07-10T05:57:54.865Z,40
2018-07-10T05:58:20.360Z,40
2018-07-10T05:58:45.914Z,45
2018-07-10T05:59:11.326Z,45
2018-07-10T05:59:36.807Z,45
2018-07-10T06:00:02.304Z,50
2018-07-10T06:00:27.800Z,50
2018-07-10T06:00:53.293Z,50
2018-07-10T06:01:18.793Z,50
2018-07-10T06:01:44.286Z,45
2018-07-10T06:02:09.790Z,45
2018-07-10T06:02:35.272Z,45
2018-07-10T06:03:00.800Z,45
2018-07-10T06:03:26.268Z,45
2018-07-10T06:03:51.767Z,45
2018-07-10T06:04:17.259Z,50
2018-07-10T06:04:42.910Z,55
2018-07-10T06:05:08.277Z,55
2018-07-10T06:05:33.760Z,60
2018-07-10T06:05:59.281Z,60
2018-07-10T06:06:24.761Z,60
2018-07-10T06:06:50.276Z,65
2018-07-10T06:07:15.769Z,65
2018-07-10T06:07:41.264Z,65
2018-07-10T06:08:06.733Z,70
2018-07-10T06:08:32.209Z,75
2018-07-10T06:08:57.727Z,85
2018-07-10T06:09:23.192Z,85
2018-07-10T06:09:48.668Z,85
2018-07-10T06:10:14.145Z,85
2018-07-10T06:10:39.643Z,85
2018-07-10T06:11:05.149Z,95
2018-07-10T06:11:30.650Z,105
2018-07-10T06:11:56.179Z,110
2018-07-10T06:12:21.657Z,110
2018-07-10T06:12:47.136Z,110
2018-07-10T06:13:12.627Z,105
2018-07-10T06:13:38.200Z,105
2018-07-10T06:14:03.665Z,95
2018-07-10T06:14:29.131Z,90
2018-07-10T06:14:54.651Z,85
2018-07-10T06:15:20.133Z,85
2018-07-10T06:15:45.681Z,85
2018-07-10T06:16:11.294Z,85
2018-07-10T06:16:36.649Z,90
2018-07-10T06:17:02.192Z,95
2018-07-10T06:17:27.623Z,100
2018-07-10T06:17:53.099Z,95
2018-07-10T06:18:18.598Z,85
2018-07-10T06:18:44.091Z,80
2018-07-10T06:19:09.592Z,70
2018-07-10T06:19:35.100Z,65
2018-07-10T06:20:00.617Z,60
2018-07-10T06:20:26.095Z,60
2018-07-10T06:20:51.573Z,55
2018-07-10T06:21:17.083Z,55
2018-07-10T06:21:42.595Z,50
2018-07-10T06:22:08.126Z,50
2018-07-10T06:22:33.606Z,50
2018-07-10T06:22:59.120Z,50
2018-07-10T06:23:24.592Z,50
2018-07-10T06:23:50.075Z,50
2018-07-10T06:24:15.580Z,50
2018-07-10T06:24:41.103Z,55
2018-07-10T06:25:06.608Z,60
2018-07-10T06:26:25.631Z,65
2018-07-10T06:26:51.119Z,65
2018-07-10T06:27:16.620Z,70
2018-07-10T06:27:42.128Z,75
2018-07-10T06:28:07.655Z,85
2018-07-10T06:28:33.139Z,90
2018-07-10T06:29:46.916Z,105
2018-07-10T06:30:12.417Z,115
2018-07-10T06:30:37.885Z,125
2018-07-10T06:31:03.370Z,135
2018-07-10T06:32:27.413Z,140
2018-07-10T06:32:52.883Z,140
2018-07-10T06:33:18.401Z,125
2018-07-10T06:33:43.881Z,120
2018-07-10T06:34:09.375Z,125
2018-07-10T06:34:34.848Z,125
2018-07-10T06:35:00.377Z,120
2018-07-10T06:35:25.862Z,110
2018-07-10T06:35:51.372Z,110
2018-07-10T06:36:16.876Z,105
2018-07-10T06:36:42.410Z,110
2018-07-10T06:37:07.911Z,105
2018-07-10T06:37:33.443Z,100
2018-07-10T06:37:58.930Z,85
2018-07-10T06:38:24.431Z,75
2018-07-10T06:38:49.954Z,75
2018-07-10T06:39:15.444Z,70
2018-07-10T06:39:40.944Z,75
2018-07-10T06:40:06.474Z,70
2018-07-10T06:40:31.992Z,65
2018-07-10T06:40:57.496Z,60
2018-07-10T06:41:23.019Z,60
2018-07-10T06:41:48.519Z,60
2018-07-10T06:42:13.961Z,60
2018-07-10T06:42:39.462Z,65
2018-07-10T06:43:05.009Z,60
2018-07-10T06:43:30.560Z,60
2018-07-10T06:43:56.050Z,55
2018-07-10T06:44:21.538Z,50
2018-07-10T06:44:47.038Z,50
2018-07-10T06:45:12.531Z,50
2018-07-10T06:45:38.051Z,50
2018-07-10T06:46:03.556Z,50
2018-07-10T06:46:29.035Z,50
2018-07-10T06:46:54.549Z,50
2018-07-10T06:47:20.032Z,55
2018-07-10T06:47:45.522Z,55
2018-07-10T06:48:11.012Z,50
2018-07-10T06:48:36.542Z,45
2018-07-10T06:49:02.038Z,50
2018-07-10T06:49:27.555Z,50
2018-07-10T06:49:53.070Z,50
2018-07-10T06:50:18.576Z,50
2018-07-10T06:50:44.067Z,55
2018-07-10T06:51:09.577Z,55
2018-07-10T06:51:35.056Z,60
2018-07-10T06:52:00.870Z,65
2018-07-10T06:52:26.458Z,75
2018-07-10T06:52:52.161Z,80
2018-07-10T06:53:17.887Z,75
2018-07-10T06:53:43.044Z,75
2018-07-10T06:54:08.448Z,80
2018-07-10T06:54:33.945Z,80
2018-07-10T06:54:59.437Z,80
2018-07-10T06:55:24.937Z,80
2018-07-10T06:55:50.461Z,85
2018-07-10T06:56:15.942Z,80
2018-07-10T06:56:41.421Z,80
2018-07-10T06:57:06.912Z,85
2018-07-10T06:57:32.415Z,90
2018-07-10T06:57:57.937Z,95
2018-07-10T06:58:23.408Z,105
2018-07-10T06:58:48.922Z,110
2018-07-10T06:59:14.410Z,115
2018-07-10T06:59:39.952Z,120
2018-07-10T07:00:05.364Z,135
2018-07-10T07:00:30.819Z,140
2018-07-10T07:00:56.281Z,140
2018-07-10T07:01:21.727Z,165
2018-07-10T07:01:47.262Z,185
2018-07-10T07:02:12.695Z,205
2018-07-10T07:02:38.128Z,220
2018-07-10T07:03:03.586Z,210
2018-07-10T07:03:29.063Z,200
2018-07-10T07:03:54.560Z,210
2018-07-10T07:04:19.999Z,215
2018-07-10T07:04:45.480Z,195
2018-07-10T07:05:10.923Z,170
2018-07-10T07:05:36.382Z,135
2018-07-10T07:06:01.861Z,115
2018-07-10T07:06:27.329Z,120
2018-07-10T07:06:52.764Z,110
2018-07-10T07:07:18.228Z,100
2018-07-10T07:07:43.765Z,90
2018-07-10T07:08:09.141Z,90
2018-07-10T07:08:34.631Z,95
2018-07-10T07:09:00.102Z,90
2018-07-10T07:09:25.672Z,85
2018-07-10T07:09:51.177Z,85
2018-07-10T07:10:16.683Z,95
2018-07-10T07:10:42.202Z,95
2018-07-10T07:11:07.688Z,95
2018-07-10T07:11:33.200Z,100
2018-07-10T07:11:58.694Z,95
2018-07-10T07:12:24.211Z,90
2018-07-10T07:12:49.718Z,90
2018-07-10T07:13:15.214Z,95
2018-07-10T07:13:40.730Z,100
2018-07-10T07:14:06.218Z,110
2018-07-10T07:14:31.695Z,105
2018-07-10T07:14:57.194Z,100
2018-07-10T07:15:22.712Z,115
2018-07-10T07:15:48.331Z,140
2018-07-10T07:17:17.410Z,175
2018-07-10T07:17:42.894Z,170
2018-07-10T07:18:08.396Z,170
2018-07-10T07:18:33.851Z,165
2018-07-10T07:18:59.513Z,155
2018-07-10T07:19:25.016Z,140
2018-07-10T07:19:50.514Z,140
2018-07-10T07:20:16.011Z,140
2018-07-10T07:20:41.493Z,140
2018-07-10T07:21:07.007Z,135
2018-07-10T07:21:32.521Z,135
2018-07-10T07:21:58.041Z,135
2018-07-10T07:22:23.535Z,130
2018-07-10T07:22:49.092Z,125
2018-07-10T07:23:14.633Z,120
2018-07-10T07:23:40.202Z,115
2018-07-10T07:24:05.660Z,120
2018-07-10T07:24:31.148Z,130
2018-07-10T07:24:56.666Z,140
2018-07-10T07:25:22.149Z,120
2018-07-10T07:25:47.645Z,95
2018-07-10T07:26:13.147Z,80
2018-07-10T07:26:38.649Z,80
2018-07-10T07:27:04.134Z,80
2018-07-10T07:27:29.674Z,80
2018-07-10T07:27:55.140Z,95
2018-07-10T07:28:20.641Z,100
2018-07-10T07:28:46.107Z,105
2018-07-10T07:29:11.607Z,105
2018-07-10T07:29:37.106Z,110
2018-07-10T07:30:02.598Z,105
2018-07-10T07:30:28.112Z,100
2018-07-10T07:30:53.603Z,110
2018-07-10T07:31:19.091Z,110
2018-07-10T07:31:44.584Z,95
2018-07-10T07:32:10.056Z,110
2018-07-10T07:32:35.557Z,145
2018-07-10T07:33:01.042Z,155
2018-07-10T07:33:26.529Z,175
2018-07-10T07:33:51.986Z,190
2018-07-10T07:34:17.507Z,200
2018-07-10T07:34:42.981Z,200
2018-07-10T07:35:08.509Z,205
2018-07-10T07:35:33.955Z,180
2018-07-10T07:35:59.453Z,165
2018-07-10T07:36:24.969Z,140
2018-07-10T07:36:50.464Z,125
2018-07-10T07:37:15.955Z,120
2018-07-10T07:37:41.460Z,130
2018-07-10T07:38:07.158Z,150
2018-07-10T07:38:32.657Z,170
2018-07-10T07:38:58.144Z,195
2018-07-10T07:39:23.653Z,195
2018-07-10T07:39:49.126Z,205
2018-07-10T07:40:14.625Z,210
2018-07-10T07:40:40.167Z,215
2018-07-10T07:41:05.659Z,215
2018-07-10T07:41:31.172Z,200
2018-07-10T07:41:56.816Z,185
2018-07-10T07:42:22.185Z,155
2018-07-10T07:42:47.684Z,140
2018-07-10T07:43:13.205Z,135
2018-07-10T07:43:38.788Z,115
2018-07-10T07:44:04.399Z,120
2018-07-10T07:44:29.808Z,120
2018-07-10T07:44:55.365Z,120
2018-07-10T07:45:20.859Z,125
2018-07-10T07:45:46.364Z,130
2018-07-10T07:46:11.862Z,135
2018-07-10T07:46:37.357Z,135
2018-07-10T07:47:02.880Z,135
2018-07-10T07:47:28.389Z,125
2018-07-10T07:47:53.890Z,125
2018-07-10T07:48:19.406Z,125
2018-07-10T07:48:44.905Z,120
2018-07-10T07:49:10.397Z,115
2018-07-10T07:49:35.892Z,115
2018-07-10T07:50:01.406Z,115
2018-07-10T07:50:26.936Z,115
2018-07-10T07:50:52.434Z,110
2018-07-10T07:51:17.938Z,100
2018-07-10T07:51:43.427Z,100
2018-07-10T07:52:08.912Z,100
2018-07-10T07:52:34.441Z,105
2018-07-10T07:52:59.942Z,110
2018-07-10T07:53:25.428Z,115
2018-07-10T07:53:51.047Z,120
2018-07-10T07:54:16.673Z,135
2018-07-10T07:55:30.419Z,140
2018-07-10T07:55:55.912Z,135
2018-07-10T07:56:21.418Z,125
2018-07-10T07:56:46.911Z,120
2018-07-10T07:57:12.412Z,115
2018-07-10T07:57:37.918Z,115
2018-07-10T07:58:03.401Z,110
2018-07-10T07:58:28.954Z,100
2018-07-10T07:58:54.380Z,85
2018-07-10T07:59:19.879Z,85
2018-07-10T07:59:45.372Z,85
2018-07-10T08:00:10.895Z,85
2018-07-10T08:00:36.398Z,95
2018-07-10T08:01:01.932Z,90
2018-07-10T08:01:27.433Z,80
2018-07-10T08:01:52.933Z,80
2018-07-10T08:02:18.412Z,80
2018-07-10T08:02:43.923Z,85
2018-07-10T08:03:09.434Z,85
2018-07-10T08:03:34.914Z,80
2018-07-10T08:04:00.408Z,80
2018-07-10T08:04:25.876Z,85
2018-07-10T08:04:51.346Z,85
2018-07-10T08:05:16.906Z,85
2018-07-10T08:05:42.424Z,85
2018-07-10T08:06:07.912Z,80
2018-07-10T08:06:33.407Z,80
2018-07-10T08:06:58.907Z,80
2018-07-10T08:07:24.398Z,70
2018-07-10T08:07:49.893Z,70
2018-07-10T08:08:15.335Z,85
2018-07-10T08:08:40.846Z,85
2018-07-10T08:09:06.602Z,80
2018-07-10T08:09:32.086Z,80
2018-07-10T08:09:57.951Z,75
2018-07-10T08:10:23.102Z,80
2018-07-10T08:10:48.605Z,90
2018-07-10T08:11:14.110Z,95
2018-07-10T08:11:39.635Z,100
2018-07-10T08:12:05.177Z,110
2018-07-10T08:12:30.699Z,115
2018-07-10T08:12:56.217Z,105
2018-07-10T08:13:21.695Z,90
2018-07-10T08:13:47.204Z,100
2018-07-10T08:14:12.754Z,100
2018-07-10T08:14:38.190Z,90
2018-07-10T08:15:03.672Z,85
2018-07-10T08:15:29.144Z,90
2018-07-10T08:15:54.674Z,85
2018-07-10T08:16:20.151Z,85
2018-07-10T08:16:45.695Z,95
2018-07-10T08:17:11.192Z,110
2018-07-10T08:17:36.697Z,110
2018-07-10T08:18:02.236Z,115
2018-07-10T08:18:27.674Z,125
2018-07-10T08:18:53.169Z,120
2018-07-10T08:19:18.697Z,120
2018-07-10T08:19:44.153Z,130
2018-07-10T08:20:09.646Z,125
2018-07-10T08:20:35.150Z,125
2018-07-10T08:21:00.646Z,125
2018-07-10T08:21:26.138Z,145
2018-07-10T08:21:51.633Z,155
2018-07-10T08:22:17.145Z,150
2018-07-10T08:22:42.650Z,155
2018-07-10T08:23:08.267Z,145
2018-07-10T08:23:33.750Z,145
2018-07-10T08:23:59.230Z,150
2018-07-10T08:24:24.762Z,130
2018-07-10T08:24:50.235Z,145
2018-07-10T08:25:15.724Z,125
2018-07-10T08:25:41.221Z,110
2018-07-10T08:26:06.725Z,100
2018-07-10T08:26:32.251Z,105
2018-07-10T08:26:57.752Z,105
2018-07-10T08:27:23.244Z,105
2018-07-10T08:27:48.785Z,105
2018-07-10T08:28:14.323Z,105
2018-07-10T08:28:39.815Z,120
2018-07-10T08:29:05.312Z,135
2018-07-10T08:30:14.023Z,150
2018-07-10T08:30:39.529Z,140
2018-07-10T08:31:05.011Z,140
2018-07-10T08:31:30.520Z,130
2018-07-10T08:31:56.026Z,120
2018-07-10T08:32:21.589Z,110
2018-07-10T08:32:47.084Z,110
2018-07-10T08:33:12.606Z,125
2018-07-10T08:33:38.152Z,135
2018-07-10T08:34:03.649Z,150
2018-07-10T08:34:29.136Z,145
2018-07-10T08:34:54.641Z,145
2018-07-10T08:35:20.143Z,150
2018-07-10T08:35:45.714Z,150
2018-07-10T08:36:11.220Z,150
2018-07-10T08:36:36.722Z,170
2018-07-10T08:37:02.389Z,200
2018-07-10T08:37:28.161Z,195
2018-07-10T08:37:53.652Z,185
2018-07-10T08:38:19.128Z,170
2018-07-10T08:38:44.668Z,170
2018-07-10T08:39:10.160Z,170
2018-07-10T08:39:35.636Z,160
2018-07-10T08:40:01.129Z,150
2018-07-10T08:40:26.636Z,150
2018-07-10T08:40:52.129Z,155
2018-07-10T08:41:17.606Z,160
2018-07-10T08:41:43.081Z,135
2018-07-10T08:42:08.620Z,135
2018-07-10T08:42:34.093Z,125
2018-07-10T08:42:59.580Z,125
2018-07-10T08:43:25.065Z,135
2018-07-10T08:43:50.571Z,130
2018-07-10T08:44:16.074Z,160
2018-07-10T08:44:41.569Z,160
2018-07-10T08:45:07.063Z,160
2018-07-10T08:45:32.624Z,180
2018-07-10T08:47:01.740Z,165
2018-07-10T08:47:27.243Z,150
2018-07-10T08:47:52.760Z,140
2018-07-10T08:48:18.276Z,140
2018-07-10T08:48:43.810Z,140
2018-07-10T08:49:09.268Z,150
2018-07-10T08:50:38.428Z,180
2018-07-10T08:51:03.858Z,185
2018-07-10T08:51:29.365Z,160
2018-07-10T08:51:54.873Z,135
2018-07-10T08:52:20.370Z,120
2018-07-10T08:52:45.854Z,105
2018-07-10T08:53:11.354Z,105
2018-07-10T08:53:36.883Z,110
2018-07-10T08:54:02.381Z,110
2018-07-10T08:54:27.866Z,115
2018-07-10T08:54:53.394Z,115
2018-07-10T08:55:18.897Z,130
2018-07-10T08:55:44.385Z,140
2018-07-10T08:56:09.871Z,140
2018-07-10T08:56:35.336Z,130
2018-07-10T08:57:00.851Z,125
2018-07-10T08:57:26.359Z,145
2018-07-10T08:57:51.856Z,170
2018-07-10T08:58:17.352Z,170
2018-07-10T08:58:42.816Z,165
2018-07-10T08:59:08.351Z,180
2018-07-10T08:59:33.867Z,170
2018-07-10T08:59:59.389Z,180
2018-07-10T09:00:24.920Z,170
2018-07-10T09:00:50.414Z,165
2018-07-10T09:01:15.903Z,160
2018-07-10T09:01:41.404Z,155
2018-07-10T09:02:06.905Z,140
2018-07-10T09:02:32.412Z,125
2018-07-10T09:02:57.902Z,125
2018-07-10T09:03:23.442Z,125
2018-07-10T09:03:49.033Z,135
2018-07-10T09:04:14.553Z,140
2018-07-10T09:04:40.033Z,150
2018-07-10T09:05:05.537Z,165
2018-07-10T09:05:31.045Z,140
2018-07-10T09:05:56.532Z,135
2018-07-10T09:06:22.036Z,150
2018-07-10T09:06:47.510Z,145
2018-07-10T09:07:13.001Z,140
2018-07-10T09:07:38.500Z,145
2018-07-10T09:08:04.025Z,170
2018-07-10T09:08:29.532Z,190
2018-07-10T09:08:55.032Z,205
2018-07-10T09:09:20.512Z,195
2018-07-10T09:09:46.021Z,205
2018-07-10T09:10:11.480Z,210
2018-07-10T09:10:36.982Z,215
2018-07-10T09:11:02.475Z,205
2018-07-10T09:11:27.967Z,170
2018-07-10T09:11:53.475Z,145
2018-07-10T09:12:18.993Z,135
2018-07-10T09:12:44.464Z,125
2018-07-10T09:13:09.962Z,130
2018-07-10T09:13:35.463Z,135
2018-07-10T09:14:00.963Z,130
2018-07-10T09:14:26.513Z,140
2018-07-10T09:14:52.028Z,135
2018-07-10T09:15:17.555Z,130
2018-07-10T09:15:43.064Z,130
2018-07-10T09:16:08.552Z,145
2018-07-10T09:16:34.048Z,155
2018-07-10T09:16:59.528Z,160
2018-07-10T09:17:25.030Z,170
2018-07-10T09:17:50.547Z,180
2018-07-10T09:18:16.040Z,185
2018-07-10T09:18:41.515Z,185
2018-07-10T09:19:07.032Z,200
2018-07-10T09:19:32.531Z,205
2018-07-10T09:19:58.034Z,195
2018-07-10T09:20:23.626Z,200
2018-07-10T09:20:49.138Z,240
2018-07-10T09:21:14.624Z,230
2018-07-10T09:21:40.124Z,210
2018-07-10T09:22:05.609Z,205
2018-07-10T09:22:31.084Z,210
2018-07-10T09:22:56.579Z,215
2018-07-10T09:23:22.071Z,205
2018-07-10T09:23:47.556Z,225
2018-07-10T09:24:13.061Z,235
2018-07-10T09:24:38.534Z,230
2018-07-10T09:25:04.043Z,215
2018-07-10T09:25:29.572Z,190
2018-07-10T09:25:55.100Z,175
2018-07-10T09:26:20.583Z,180
2018-07-10T09:26:46.085Z,175
2018-07-10T09:27:11.595Z,195
2018-07-10T09:27:37.089Z,180
2018-07-10T09:28:02.595Z,195
2018-07-10T09:28:28.117Z,200
2018-07-10T09:28:53.602Z,180
2018-07-10T09:29:19.084Z,175
2018-07-10T09:29:44.590Z,165
2018-07-10T09:30:10.064Z,180
2018-07-10T09:30:35.682Z,175
2018-07-10T09:31:01.201Z,170
2018-07-10T09:31:26.726Z,170
2018-07-10T09:31:52.200Z,160
2018-07-10T09:32:17.742Z,145
2018-07-10T09:32:43.229Z,140
2018-07-10T09:33:08.729Z,150
2018-07-10T09:33:34.381Z,150
2018-07-10T09:33:59.731Z,140
2018-07-10T09:34:25.237Z,125
2018-07-10T09:34:50.737Z,125
2018-07-10T09:35:16.258Z,130
2018-07-10T09:35:41.769Z,130
2018-07-10T09:36:07.246Z,140
2018-07-10T09:36:32.748Z,155
2018-07-10T09:36:58.216Z,145
2018-07-10T09:37:23.676Z,130
2018-07-10T09:37:49.142Z,120
2018-07-10T09:38:14.716Z,105
2018-07-10T09:38:40.153Z,105
2018-07-10T09:39:05.629Z,105
2018-07-10T09:39:31.251Z,105
2018-07-10T09:39:56.752Z,105
2018-07-10T09:40:22.219Z,110
2018-07-10T09:40:47.757Z,110
2018-07-10T09:41:13.228Z,110
2018-07-10T09:41:38.736Z,110
2018-07-10T09:42:04.225Z,110
2018-07-10T09:42:29.737Z,110
2018-07-10T09:42:55.243Z,100
2018-07-10T09:43:20.728Z,90
2018-07-10T09:43:46.231Z,95
2018-07-10T09:44:11.715Z,105
2018-07-10T09:44:37.199Z,115
2018-07-10T09:45:02.691Z,115
2018-07-10T09:45:28.195Z,125
2018-07-10T09:45:53.701Z,135
2018-07-10T09:46:19.206Z,140
2018-07-10T09:46:44.698Z,140
2018-07-10T09:48:13.823Z,135
2018-07-10T09:48:39.293Z,145
2018-07-10T09:49:04.815Z,140
2018-07-10T09:49:30.315Z,135
2018-07-10T09:49:55.780Z,140
2018-07-10T09:50:21.235Z,120
2018-07-10T09:50:46.741Z,110
2018-07-10T09:51:12.251Z,110
2018-07-10T09:51:37.736Z,100
2018-07-10T09:52:03.252Z,100
2018-07-10T09:52:28.709Z,105
2018-07-10T09:52:54.265Z,100
2018-07-10T09:53:19.760Z,100
2018-07-10T09:53:45.252Z,95
2018-07-10T09:54:10.765Z,85
2018-07-10T09:54:36.297Z,90
2018-07-10T09:55:01.908Z,95
2018-07-10T09:55:27.379Z,105
2018-07-10T09:55:52.861Z,105
2018-07-10T09:56:18.389Z,110
2018-07-10T09:56:43.888Z,110
2018-07-10T09:57:09.368Z,120
2018-07-10T09:57:34.877Z,120
2018-07-10T09:58:00.360Z,115
2018-07-10T09:58:25.871Z,130
2018-07-10T09:58:51.372Z,135
2018-07-10T09:59:16.960Z,130
2018-07-10T09:59:42.551Z,135
2018-07-10T10:00:08.036Z,130
2018-07-10T10:00:33.544Z,125
2018-07-10T10:00:59.039Z,130
2018-07-10T10:01:24.532Z,130
2018-07-10T10:01:50.101Z,135
2018-07-10T10:02:15.504Z,135
2018-07-10T10:02:41.009Z,130
2018-07-10T10:03:06.521Z,125
2018-07-10T10:03:32.013Z,120
2018-07-10T10:03:57.497Z,115
2018-07-10T10:04:23.012Z,110
2018-07-10T10:04:48.515Z,105
2018-07-10T10:05:14.029Z,110
2018-07-10T10:05:39.510Z,110
2018-07-10T10:06:05.031Z,110
2018-07-10T10:06:30.556Z,110
2018-07-10T10:06:56.042Z,105
2018-07-10T10:07:21.535Z,105
2018-07-10T10:07:47.036Z,110
2018-07-10T10:08:12.514Z,120
2018-07-10T10:08:38.032Z,130
2018-07-10T10:09:03.511Z,135
2018-07-10T10:09:29.000Z,140
2018-07-10T10:09:54.483Z,135
2018-07-10T10:10:20.018Z,140
2018-07-10T10:10:45.509Z,140
2018-07-10T10:11:11.032Z,150
2018-07-10T10:12:30.966Z,135
2018-07-10T10:12:56.484Z,140
2018-07-10T10:13:22.000Z,145
2018-07-10T10:13:47.499Z,150
2018-07-10T10:14:12.972Z,145
2018-07-10T10:14:38.483Z,155
2018-07-10T10:15:03.962Z,170
2018-07-10T10:15:29.440Z,170
2018-07-10T10:15:54.958Z,160
2018-07-10T10:16:20.509Z,175
2018-07-10T10:16:46.002Z,190
2018-07-10T10:17:11.492Z,190
2018-07-10T10:17:36.947Z,190
2018-07-10T10:18:02.469Z,190
2018-07-10T10:18:27.979Z,175
2018-07-10T10:18:53.486Z,175
2018-07-10T10:19:19.024Z,165
2018-07-10T10:19:44.543Z,155
2018-07-10T10:20:10.033Z,145
2018-07-10T10:20:35.531Z,135
2018-07-10T10:21:00.998Z,130
2018-07-10T10:21:26.494Z,120
2018-07-10T10:21:52.020Z,110
2018-07-10T10:22:17.521Z,105
2018-07-10T10:22:42.990Z,105
2018-07-10T10:23:08.501Z,115
2018-07-10T10:23:34.008Z,125
2018-07-10T10:23:59.518Z,125
2018-07-10T10:24:25.004Z,145
2018-07-10T10:24:50.465Z,150
2018-07-10T10:25:15.990Z,155
2018-07-10T10:25:41.554Z,150
2018-07-10T10:26:07.003Z,140
2018-07-10T10:26:32.496Z,135